Time,TemperatureF,DewpointF,PressureIn,WindDirection,WindDirectionDegrees,WindSpeedMPH,WindSpeedGustMPH,Humidity,HourlyPrecipIn,Conditions,Clouds,dailyrainin,SolarRadiationWatts/m^2,SoftwareType,DateUTC
2013-09-08 03:53:00,65.0,55.0,-100.00,SE,143,3.0,7.0,71,-99.99,,,0.15,0.000000,,2013-09-08 10:53:00,
2013-09-08 04:02:00,65.0,55.0,-100.00,SE,143,3.0,7.0,71,-99.99,,,0.15,0.000000,,2013-09-08 11:02:00,
2013-09-08 04:12:00,65.0,55.0,-100.00,SE,143,3.0,7.0,71,-99.99,,,0.15,0.000000,,2013-09-08 11:12:00,
2013-09-08 04:52:00,63.0,51.0,-100.00,SE,127,0.0,5.0,64,0.00,,,0.15,0.000000,,2013-09-08 11:52:00,
2013-09-08 05:02:00,63.0,51.0,-100.00,SE,127,0.0,5.0,64,0.00,,,0.15,0.000000,,2013-09-08 12:02:00,
2013-09-08 05:12:00,63.0,51.0,-100.00,SE,127,0.0,5.0,64,0.00,,,0.15,0.000000,,2013-09-08 12:12:00,
2013-09-08 05:52:00,64.0,52.0,-100.00,SE,146,1.0,5.0,65,0.00,,,0.15,0.000000,,2013-09-08 12:52:00,
2013-09-08 06:01:00,64.0,52.0,-100.00,SE,146,1.0,5.0,65,0.00,,,0.15,0.000000,,2013-09-08 13:01:00,
2013-09-08 06:52:00,62.0,51.0,-100.00,SE,146,1.0,5.0,66,0.00,,,0.15,0.000000,,2013-09-08 13:52:00,
2013-09-08 07:02:00,62.0,51.0,-100.00,SE,146,1.0,5.0,66,0.00,,,0.15,0.000000,,2013-09-08 14:02:00,
2013-09-08 09:44:00,81.0,54.0,-100.00,NNW,327,2.0,5.0,39,-99.99,,,0.15,540.000000,,2013-09-08 16:44:00,
2013-09-08 09:53:00,81.0,54.0,-100.00,NNW,327,2.0,5.0,39,-99.99,,,0.15,540.000000,,2013-09-08 16:53:00,
2013-09-08 10:03:00,81.0,54.0,-100.00,NNW,327,2.0,5.0,39,-99.99,,,0.15,540.000000,,2013-09-08 17:03:00,
2013-09-08 10:12:00,81.0,54.0,-100.00,NNW,327,2.0,5.0,39,-99.99,,,0.15,540.000000,,2013-09-08 17:12:00,
2013-09-08 10:43:00,84.0,53.0,-100.00,NW,307,3.0,6.0,35,0.00,,,0.15,801.000000,,2013-09-08 17:43:00,
2013-09-08 10:53:00,84.0,53.0,-100.00,NW,307,3.0,6.0,35,0.00,,,0.15,801.000000,,2013-09-08 17:53:00,
2013-09-08 11:02:00,84.0,53.0,-100.00,NW,307,3.0,6.0,35,0.00,,,0.15,801.000000,,2013-09-08 18:02:00,
2013-09-08 11:13:00,84.0,53.0,-100.00,NW,307,3.0,6.0,35,0.00,,,0.15,801.000000,,2013-09-08 18:13:00,
2013-09-08 11:42:00,85.0,53.0,-100.00,ENE,67,1.0,9.0,33,0.00,,,0.15,1021.000000,,2013-09-08 18:42:00,
2013-09-08 11:52:00,85.0,53.0,-100.00,ENE,67,1.0,9.0,33,0.00,,,0.15,1021.000000,,2013-09-08 18:52:00,
2013-09-08 12:01:00,85.0,53.0,-100.00,ENE,67,1.0,9.0,33,0.00,,,0.15,1021.000000,,2013-09-08 19:01:00,
2013-09-08 12:12:00,85.0,53.0,-100.00,ENE,67,1.0,9.0,33,0.00,,,0.15,1021.000000,,2013-09-08 19:12:00,
2013-09-08 12:42:00,86.0,54.0,-100.00,WNW,290,2.0,10.0,33,0.00,,,0.15,1171.000000,,2013-09-08 19:42:00,
2013-09-08 12:52:00,86.0,54.0,-100.00,WNW,290,2.0,10.0,33,0.00,,,0.15,1171.000000,,2013-09-08 19:52:00,
2013-09-08 13:03:00,86.0,54.0,-100.00,WNW,290,2.0,10.0,33,0.00,,,0.15,1171.000000,,2013-09-08 20:03:00,
2013-09-08 13:11:00,86.0,54.0,-100.00,WNW,290,2.0,10.0,33,0.00,,,0.15,1171.000000,,2013-09-08 20:11:00,
2013-09-08 13:42:00,88.0,55.0,-100.00,WNW,291,3.0,11.0,33,0.00,,,0.06,1235.000000,,2013-09-08 20:42:00,
2013-09-08 13:53:00,88.0,55.0,-100.00,WNW,291,3.0,11.0,33,0.00,,,0.06,1235.000000,,2013-09-08 20:53:00,
2013-09-08 14:02:00,88.0,55.0,-100.00,WNW,291,3.0,11.0,33,0.00,,,0.06,1235.000000,,2013-09-08 21:02:00,
2013-09-08 14:12:00,88.0,55.0,-100.00,WNW,291,3.0,11.0,33,0.00,,,0.06,1235.000000,,2013-09-08 21:12:00,
2013-09-08 14:44:00,87.0,50.0,-100.00,East,94,3.0,12.0,28,0.00,,,0.06,1216.000000,,2013-09-08 21:44:00,
2013-09-08 14:54:00,87.0,50.0,-100.00,East,94,3.0,12.0,28,0.00,,,0.06,1216.000000,,2013-09-08 21:54:00,
2013-09-08 15:04:00,87.0,50.0,-100.00,East,94,3.0,12.0,28,0.00,,,0.06,1216.000000,,2013-09-08 22:04:00,
2013-09-08 15:13:00,87.0,50.0,-100.00,East,94,3.0,12.0,28,0.00,,,0.06,1216.000000,,2013-09-08 22:13:00,
2013-09-08 15:44:00,88.0,47.0,-100.00,NNW,329,3.0,13.0,24,0.00,,,0.06,1120.000000,,2013-09-08 22:44:00,
2013-09-08 15:53:00,88.0,47.0,-100.00,NNW,329,3.0,13.0,24,0.00,,,0.06,1120.000000,,2013-09-08 22:53:00,
2013-09-08 16:04:00,88.0,47.0,-100.00,NNW,329,3.0,13.0,24,0.00,,,0.06,1120.000000,,2013-09-08 23:04:00,
2013-09-08 16:12:00,88.0,47.0,-100.00,NNW,329,3.0,13.0,24,0.00,,,0.06,1120.000000,,2013-09-08 23:12:00,
2013-09-08 16:42:00,88.0,44.0,-100.00,West,270,3.0,13.0,22,0.00,,,0.00,936.000000,,2013-09-08 23:42:00,
2013-09-08 16:52:00,88.0,44.0,-100.00,West,270,3.0,13.0,22,0.00,,,0.00,936.000000,,2013-09-08 23:52:00,
2013-09-08 17:02:00,88.0,44.0,-100.00,West,270,3.0,13.0,22,0.00,,,0.00,936.000000,,2013-09-09 00:02:00,
2013-09-08 17:11:00,88.0,44.0,-100.00,West,270,3.0,13.0,22,0.00,,,0.00,936.000000,,2013-09-09 00:11:00,
2013-09-08 17:42:00,86.0,41.0,-100.00,NE,47,3.0,12.0,21,0.00,,,0.00,686.000000,,2013-09-09 00:42:00,
2013-09-08 17:52:00,86.0,41.0,-100.00,NE,47,3.0,12.0,21,0.00,,,0.00,686.000000,,2013-09-09 00:52:00,
2013-09-08 18:01:00,86.0,41.0,-100.00,NE,47,3.0,12.0,21,0.00,,,0.00,686.000000,,2013-09-09 01:01:00,
2013-09-08 18:12:00,86.0,41.0,-100.00,NE,47,3.0,12.0,21,0.00,,,0.00,686.000000,,2013-09-09 01:12:00,
2013-09-08 18:42:00,84.0,41.0,-100.00,SE,137,1.0,9.0,22,0.00,,,-99.99,379.000000,,2013-09-09 01:42:00,
2013-09-08 18:52:00,84.0,41.0,-100.00,SE,137,1.0,9.0,22,0.00,,,-99.99,379.000000,,2013-09-09 01:52:00,
2013-09-08 19:02:00,84.0,41.0,-100.00,SE,137,1.0,9.0,22,0.00,,,-99.99,379.000000,,2013-09-09 02:02:00,
2013-09-08 19:11:00,84.0,41.0,-100.00,SE,137,1.0,9.0,22,0.00,,,-99.99,379.000000,,2013-09-09 02:11:00,
2013-09-08 19:42:00,75.0,41.0,-100.00,SE,140,0.0,5.0,29,0.00,,,0.00,31.000000,,2013-09-09 02:42:00,
2013-09-08 19:53:00,75.0,41.0,-100.00,SE,140,0.0,5.0,29,0.00,,,0.00,31.000000,,2013-09-09 02:53:00,
2013-09-08 20:02:00,75.0,41.0,-100.00,SE,140,0.0,5.0,29,0.00,,,0.00,31.000000,,2013-09-09 03:02:00,
2013-09-08 20:12:00,75.0,41.0,-100.00,SE,140,0.0,5.0,29,0.00,,,0.00,31.000000,,2013-09-09 03:12:00,
2013-09-08 20:44:00,69.0,42.0,-100.00,SE,146,3.0,5.0,37,0.00,,,0.00,0.000000,,2013-09-09 03:44:00,
2013-09-08 20:55:00,69.0,42.0,-100.00,SE,146,3.0,5.0,37,0.00,,,0.00,0.000000,,2013-09-09 03:55:00,
2013-09-08 21:03:00,69.0,42.0,-100.00,SE,146,3.0,5.0,37,0.00,,,0.00,0.000000,,2013-09-09 04:03:00,
2013-09-08 21:14:00,69.0,42.0,-100.00,SE,146,3.0,5.0,37,0.00,,,0.00,0.000000,,2013-09-09 04:14:00,
2013-09-08 21:43:00,66.0,40.0,-100.00,SE,135,0.0,6.0,39,0.00,,,0.00,0.000000,,2013-09-09 04:43:00,
2013-09-08 21:54:00,66.0,40.0,-100.00,SE,135,0.0,6.0,39,0.00,,,0.00,0.000000,,2013-09-09 04:54:00,
2013-09-08 22:03:00,66.0,40.0,-100.00,SE,135,0.0,6.0,39,0.00,,,0.00,0.000000,,2013-09-09 05:03:00,
2013-09-08 22:13:00,66.0,40.0,-100.00,SE,135,0.0,6.0,39,0.00,,,0.00,0.000000,,2013-09-09 05:13:00,